Neptune Avra — 9HKH6 — position and weather

sailwx.info

Track history (hours):
 
Tides and Currents Weather Stations Pressure Air Temp Water Temp Dewpoint Dewpoint Depression Visibility Wind Speed Wind Dir Waves Ship Positions

Neptune Avra

Last reported at 2017-Feb-23 03:31 UTC. Time now 2017-Feb-23 18:52 UTC.
Position N 38°47' E 015°01'.

Length 155 m; draft 6.2 m.

Type: Cargo ship. MMSI: 248598000.

Date/timePositionNaut miles runAvg speedWind from/ knotsBaromVisibWave heightAir tempDewpointWater temp
2017-Feb-23 03:31N 38°47' E 015°01'1516.0
2017-Feb-23 02:33N 38°38' E 015°17'1616.2
2017-Feb-23 01:33N 38°26' E 015°32'1313.0
2017-Feb-23 00:33N 38°15' E 015°41'1313.0
2017-Feb-22 23:33N 38°03' E 015°36'1414.0
2017-Feb-22 22:33N 37°52' E 015°48'36814.7
2017-Feb-21 21:31N 37°04' E 023°29'2416.9
2017-Feb-21 20:08N 37°26' E 023°39'1016.9
2017-Feb-21 19:33N 37°36' E 023°41'1616.2
2017-Feb-21 18:34N 37°52' E 023°36'6 5.6
2017-Feb-21 17:31N 37°58' E 023°36'0 0.0
2017-Feb-21 16:25N 37°58' E 023°36'0 0.0
2017-Feb-21 15:31N 37°58' E 023°36'0 0.0
2017-Feb-21 14:28N 37°58' E 023°36'0 0.0
2017-Feb-21 13:31N 37°58' E 023°36'3 2.8
2017-Feb-21 12:34N 37°55' E 023°37'3 3.2
2017-Feb-21 11:34N 37°52' E 023°39'1716.9
2017-Feb-21 10:34N 37°38' E 023°51'2016.8
2017-Feb-21 09:21N 37°44' E 024°16'  
Track history (hours):
 
Tides and Currents Weather Stations Pressure Air Temp Water Temp Dewpoint Dewpoint Depression Visibility Wind Speed Wind Dir Waves Ship Positions

Neptune Avra

Last reported at 2017-Feb-23 03:31 UTC. Time now 2017-Feb-23 18:52 UTC.
Position N 38°47' E 015°01'.

Length 155 m; draft 6.2 m.

Type: Cargo ship. MMSI: 248598000.

Date/timePositionNaut miles runAvg speedWind from/ knotsBaromVisibWave heightAir tempDewpointWater temp
2017-Feb-23 03:31N 38°47' E 015°01'1516.0
2017-Feb-23 02:33N 38°38' E 015°17'1616.2
2017-Feb-23 01:33N 38°26' E 015°32'1313.0
2017-Feb-23 00:33N 38°15' E 015°41'1313.0
2017-Feb-22 23:33N 38°03' E 015°36'1414.0
2017-Feb-22 22:33N 37°52' E 015°48'36814.7
2017-Feb-21 21:31N 37°04' E 023°29'2416.9
2017-Feb-21 20:08N 37°26' E 023°39'1016.9
2017-Feb-21 19:33N 37°36' E 023°41'1616.2
2017-Feb-21 18:34N 37°52' E 023°36'6 5.6
2017-Feb-21 17:31N 37°58' E 023°36'0 0.0
2017-Feb-21 16:25N 37°58' E 023°36'0 0.0
2017-Feb-21 15:31N 37°58' E 023°36'0 0.0
2017-Feb-21 14:28N 37°58' E 023°36'0 0.0
2017-Feb-21 13:31N 37°58' E 023°36'3 2.8
2017-Feb-21 12:34N 37°55' E 023°37'3 3.2
2017-Feb-21 11:34N 37°52' E 023°39'1716.9
2017-Feb-21 10:34N 37°38' E 023°51'2016.8
2017-Feb-21 09:21N 37°44' E 024°16'  

Dump ship's entire track history